createdAt,value
2023-02-23T00:01:34.319Z,95048.50
2023-02-23T00:04:00.981Z,95049.91
2023-02-23T00:06:29.713Z,95056.13
2023-02-23T00:08:57.056Z,95052.63
2023-02-23T00:11:23.988Z,95054.84
2023-02-23T00:13:51.158Z,95058.34
2023-02-23T00:16:20.592Z,95053.22
2023-02-23T00:18:52.968Z,95051.97
2023-02-23T00:21:19.692Z,95053.06
2023-02-23T00:23:55.131Z,95056.06
2023-02-23T00:26:25.335Z,95057.19
2023-02-23T00:28:53.965Z,95058.00
2023-02-23T00:31:23.405Z,95056.38
2023-02-23T00:33:49.897Z,95053.19
2023-02-23T00:36:16.422Z,95063.22
2023-02-23T00:38:44.153Z,95061.31
2023-02-23T00:41:14.543Z,95059.38
2023-02-23T00:43:41.915Z,95060.22
2023-02-23T00:46:08.561Z,95056.38
2023-02-23T00:48:35.560Z,95061.78
2023-02-23T00:51:04.180Z,95049.41
2023-02-23T00:53:31.868Z,95053.69
2023-02-23T00:55:58.604Z,95049.88
2023-02-23T00:58:26.583Z,95048.78
2023-02-23T01:00:53.450Z,95048.78
2023-02-23T01:03:21.162Z,95053.38
2023-02-23T01:05:47.704Z,95055.75
2023-02-23T01:08:16.063Z,95055.75
2023-02-23T01:10:43.795Z,95058.47
2023-02-23T01:13:11.808Z,95048.78
2023-02-23T01:15:42.936Z,95054.19
2023-02-23T01:18:11.171Z,95053.06
2023-02-23T01:20:38.386Z,95053.06
2023-02-23T01:23:05.027Z,95055.75
2023-02-23T01:25:33.373Z,95058.47
2023-02-23T01:28:00.792Z,95055.75
2023-02-23T01:30:27.466Z,95060.38
2023-02-23T01:32:54.234Z,95056.59
2023-02-23T01:35:21.783Z,95051.97
2023-02-23T01:37:49.321Z,95057.38
2023-02-23T01:40:19.627Z,95059.75
2023-02-23T01:42:46.809Z,95053.88
2023-02-23T01:45:24.268Z,95059.09
2023-02-23T01:47:53.300Z,95059.59
2023-02-23T01:50:22.776Z,95054.19
2023-02-23T01:52:52.045Z,95049.09
2023-02-23T01:55:21.355Z,95053.69
2023-02-23T01:57:47.923Z,95044.00
2023-02-23T02:00:15.050Z,95044.78
2023-02-23T02:02:41.728Z,95036.97
2023-02-23T02:05:08.819Z,95039.69
2023-02-23T02:07:36.708Z,95043.38
2023-02-23T02:10:03.588Z,95037.97
2023-02-23T02:12:30.840Z,95042.56
2023-02-23T02:14:59.244Z,95032.56
2023-02-23T02:17:39.983Z,95034.66
2023-02-23T02:20:49.401Z,95032.56
2023-02-23T02:23:31.905Z,95029.34
2023-02-23T02:26:10.520Z,95023.34
2023-02-23T02:28:59.492Z,95028.72
2023-02-23T02:31:43.444Z,95022.72
2023-02-23T02:34:42.767Z,95019.53
2023-02-23T02:37:31.466Z,95026.53
2023-02-23T02:39:58.073Z,95019.53
2023-02-23T02:42:35.992Z,95021.13
2023-02-23T02:45:15.623Z,95021.13
2023-02-23T02:48:03.554Z,95021.13
2023-02-23T02:50:44.390Z,95021.94
2023-02-23T02:53:13.582Z,95018.91
2023-02-23T02:55:43.810Z,95020.78
2023-02-23T02:58:13.384Z,95024.31
2023-02-23T03:00:41.480Z,95034.00
2023-02-23T03:03:31.378Z,95023.84
2023-02-23T03:05:57.956Z,95030.50
2023-02-23T03:08:50.373Z,95029.72
2023-02-23T03:11:17.321Z,95031.81
2023-02-23T03:14:18.050Z,95029.91
2023-02-23T03:17:03.927Z,95031.97
2023-02-23T03:19:36.730Z,95036.47
2023-02-23T03:22:38.193Z,95041.25
2023-02-23T03:25:13.244Z,95034.41
2023-02-23T03:27:49.531Z,95040.81
2023-02-23T03:30:26.949Z,95042.56
2023-02-23T03:32:59.854Z,95046.25
2023-02-23T03:35:52.034Z,95042.13
2023-02-23T03:38:32.479Z,95042.28
2023-02-23T03:41:00.345Z,95038.16
2023-02-23T03:43:35.104Z,95047.06
2023-02-23T03:46:04.787Z,95040.56
2023-02-23T03:48:36.278Z,95042.16
2023-02-23T03:51:08.307Z,95049.16
2023-02-23T03:53:47.461Z,95040.25
2023-02-23T03:56:18.921Z,95039.16
2023-02-23T03:58:51.262Z,95041.03
2023-02-23T04:01:21.404Z,95036.13
2023-02-23T04:03:51.756Z,95040.41
2023-02-23T04:06:22.645Z,95042.81
2023-02-23T04:08:51.018Z,95042.81
2023-02-23T04:11:30.530Z,95044.88
2023-02-23T04:14:02.578Z,95043.31
2023-02-23T04:16:32.019Z,95041.88
2023-02-23T04:18:59.069Z,95045.06
2023-02-23T04:21:25.598Z,95046.34
2023-02-23T04:23:52.291Z,95048.75
2023-02-23T04:26:18.765Z,95045.72
2023-02-23T04:28:45.340Z,95052.44
2023-02-23T04:31:11.970Z,95051.31
2023-02-23T04:33:38.481Z,95048.28
2023-02-23T04:36:05.543Z,95052.28
2023-02-23T04:38:32.054Z,95049.28
2023-02-23T04:40:58.742Z,95053.25
2023-02-23T04:43:25.263Z,95057.56
2023-02-23T04:45:51.834Z,95054.53
2023-02-23T04:48:18.421Z,95057.72
2023-02-23T04:50:44.987Z,95052.00
2023-02-23T04:53:11.531Z,95055.50
2023-02-23T04:55:38.014Z,95055.19
2023-02-23T04:58:04.530Z,95056.47
2023-02-23T05:00:31.186Z,95060.00
2023-02-23T05:02:58.004Z,95062.34
2023-02-23T05:05:24.881Z,95059.34
2023-02-23T05:07:51.440Z,95058.53
2023-02-23T05:10:18.091Z,95061.72
2023-02-23T05:12:44.666Z,95054.72
2023-02-23T05:15:11.514Z,95063.63
2023-02-23T05:17:40.088Z,95060.63
2023-02-23T05:20:07.102Z,95059.53
2023-02-23T05:22:33.724Z,95064.63
2023-02-23T05:25:00.222Z,95057.28
2023-02-23T05:27:26.740Z,95054.25
2023-02-23T05:29:53.568Z,95049.63
2023-02-23T05:32:20.095Z,95053.16
2023-02-23T05:34:46.661Z,95053.94
2023-02-23T05:37:13.205Z,95056.66
2023-02-23T05:39:40.912Z,95060.47
2023-02-23T05:42:07.494Z,95065.09
2023-02-23T05:44:34.073Z,95051.88
2023-02-23T05:47:00.658Z,95056.50
2023-02-23T05:49:27.240Z,95062.53
2023-02-23T05:51:53.879Z,95055.53
2023-02-23T05:54:20.360Z,95060.16
2023-02-23T05:56:46.891Z,95056.16
2023-02-23T05:59:13.405Z,95063.47
2023-02-23T06:01:40.224Z,95064.28
2023-02-23T06:04:06.740Z,95057.59
2023-02-23T06:06:33.393Z,95067.91
2023-02-23T06:09:00.031Z,95070.94
2023-02-23T06:11:26.724Z,95059.63
2023-02-23T06:13:53.241Z,95073.47
2023-02-23T06:16:19.981Z,95068.38
2023-02-23T06:18:46.675Z,95074.88
2023-02-23T06:21:13.173Z,95074.72
2023-02-23T06:23:39.714Z,95067.72
2023-02-23T06:26:06.483Z,95079.97
2023-02-23T06:28:33.002Z,95076.78
2023-02-23T06:30:59.709Z,95084.41
2023-02-23T06:33:26.570Z,95081.22
2023-02-23T06:35:54.413Z,95079.91
2023-02-23T06:38:21.748Z,95086.47
2023-02-23T06:40:48.408Z,95089.47
2023-02-23T06:43:14.943Z,95090.56
2023-02-23T06:45:41.684Z,95097.59
2023-02-23T06:48:08.333Z,95097.59
2023-02-23T06:50:34.791Z,95092.66
2023-02-23T06:53:01.346Z,95106.66
2023-02-23T06:55:27.867Z,95102.88
2023-02-23T06:57:54.462Z,95105.25
2023-02-23T07:00:21.876Z,95104.94
2023-02-23T07:02:48.765Z,95105.44
2023-02-23T07:05:15.413Z,95108.63
2023-02-23T07:07:42.015Z,95110.69
2023-02-23T07:10:09.542Z,95113.59
2023-02-23T07:12:36.014Z,95104.03
2023-02-23T07:15:02.775Z,95106.13
2023-02-23T07:17:29.304Z,95107.56
2023-02-23T07:19:55.882Z,95111.75
2023-02-23T07:22:22.576Z,95105.56
2023-02-23T07:24:49.119Z,95108.59
2023-02-23T07:27:15.638Z,95108.63
2023-02-23T07:29:42.206Z,95102.09
2023-02-23T07:32:09.157Z,95109.94
2023-02-23T07:34:35.804Z,95108.06
2023-02-23T07:37:02.468Z,95101.88
2023-02-23T07:39:29.111Z,95101.53
2023-02-23T07:41:55.640Z,95105.06
2023-02-23T07:44:23.343Z,95107.16
2023-02-23T07:46:49.851Z,95112.22
2023-02-23T07:49:16.577Z,95104.91
2023-02-23T07:51:43.209Z,95105.38
2023-02-23T07:54:09.810Z,95108.38
2023-02-23T07:56:36.324Z,95114.91
2023-02-23T07:59:03.358Z,95108.97
2023-02-23T08:01:29.879Z,95110.41
2023-02-23T08:03:56.608Z,95113.44
2023-02-23T08:06:23.343Z,95117.53
2023-02-23T08:08:50.094Z,95121.69
2023-02-23T08:11:17.018Z,95132.38
2023-02-23T08:13:43.782Z,95117.84
2023-02-23T08:16:13.330Z,95119.56
2023-02-23T08:18:39.925Z,95122.13
2023-02-23T08:21:06.652Z,95121.91
2023-02-23T08:23:33.906Z,95120.94
2023-02-23T08:26:01.368Z,95120.31
2023-02-23T08:28:28.711Z,95119.78
2023-02-23T08:30:55.431Z,95123.44
2023-02-23T08:33:22.542Z,95123.28
2023-02-23T08:35:49.259Z,95125.03
2023-02-23T08:38:15.794Z,95129.16
2023-02-23T08:40:42.265Z,95126.56
2023-02-23T08:43:08.745Z,95128.31
2023-02-23T08:45:35.252Z,95125.41
2023-02-23T08:48:04.665Z,95123.97
2023-02-23T08:50:31.264Z,95125.19
2023-02-23T08:52:57.784Z,95125.81
2023-02-23T08:55:24.374Z,95126.72
2023-02-23T08:57:50.850Z,95121.13
2023-02-23T09:00:17.860Z,95124.63
2023-02-23T09:02:45.789Z,95125.88
2023-02-23T09:05:13.687Z,95127.16
2023-02-23T09:07:41.118Z,95123.44
2023-02-23T09:10:08.600Z,95126.94
2023-02-23T09:12:35.224Z,95124.38
2023-02-23T09:15:01.830Z,95122.91
2023-02-23T09:17:28.406Z,95125.75
2023-02-23T09:19:54.964Z,95122.53
2023-02-23T09:22:21.587Z,95121.53
2023-02-23T09:24:48.090Z,95122.78
2023-02-23T09:27:15.021Z,95127.22
2023-02-23T09:29:41.752Z,95128.16
2023-02-23T09:32:08.726Z,95132.13
2023-02-23T09:34:37.388Z,95132.28
2023-02-23T09:37:05.206Z,95131.63
2023-02-23T09:39:38.144Z,95133.97
2023-02-23T09:42:28.068Z,95138.63
2023-02-23T09:45:06.034Z,95135.69
2023-02-23T09:47:49.908Z,95131.84
2023-02-23T09:50:23.409Z,95131.19
2023-02-23T09:52:58.194Z,95136.75
2023-02-23T09:55:27.154Z,95132.25
2023-02-23T09:57:56.830Z,95137.13
2023-02-23T10:00:25.211Z,95140.47
2023-02-23T10:03:18.298Z,95137.53
2023-02-23T10:05:55.032Z,95140.81
2023-02-23T10:08:55.237Z,95142.41
2023-02-23T10:11:31.899Z,95140.66
2023-02-23T10:14:12.809Z,95137.59
2023-02-23T10:16:45.026Z,95136.44
2023-02-23T10:19:22.874Z,95133.72
2023-02-23T10:22:01.503Z,95139.97
2023-02-23T10:24:38.915Z,95137.38
2023-02-23T10:27:19.298Z,95142.00
2023-02-23T10:29:48.832Z,95140.88
2023-02-23T10:32:20.228Z,95140.44
2023-02-23T10:34:49.967Z,95133.84
2023-02-23T10:37:17.623Z,95139.28
2023-02-23T10:39:44.244Z,95134.53
2023-02-23T10:42:19.546Z,95131.47
2023-02-23T10:44:46.585Z,95135.00
2023-02-23T10:47:20.080Z,95131.13
2023-02-23T10:49:52.983Z,95124.56
2023-02-23T10:52:45.397Z,95129.66
2023-02-23T10:55:30.313Z,95116.63
2023-02-23T10:58:10.788Z,95113.00
2023-02-23T11:00:40.673Z,95107.94
2023-02-23T11:03:27.683Z,95111.31
2023-02-23T11:05:54.384Z,95113.28
2023-02-23T11:08:33.048Z,95107.59
2023-02-23T11:11:04.579Z,95102.34
2023-02-23T11:13:43.550Z,95106.09
2023-02-23T11:16:15.904Z,95099.72
2023-02-23T11:18:51.308Z,95093.72
2023-02-23T11:21:23.928Z,95101.41
2023-02-23T11:23:53.766Z,95096.06
2023-02-23T11:26:30.894Z,95089.31
2023-02-23T11:29:02.116Z,95092.13
2023-02-23T11:31:35.063Z,95087.16
2023-02-23T11:34:04.988Z,95083.59
2023-02-23T11:36:34.627Z,95087.94
2023-02-23T11:39:14.547Z,95082.38
2023-02-23T11:41:41.108Z,95074.28
2023-02-23T11:44:19.750Z,95078.88
2023-02-23T11:46:46.844Z,95067.59
2023-02-23T11:49:20.486Z,95074.97
2023-02-23T11:51:49.131Z,95071.38
2023-02-23T11:54:31.237Z,95073.88
2023-02-23T11:56:58.149Z,95068.19
2023-02-23T11:59:32.037Z,95063.88
2023-02-23T12:02:13.396Z,95052.97
2023-02-23T12:04:41.341Z,95059.66
2023-02-23T12:07:29.370Z,95059.31
2023-02-23T12:10:07.196Z,95060.66
2023-02-23T12:12:42.768Z,95051.78
2023-02-23T12:15:24.195Z,95048.56
2023-02-23T12:18:00.589Z,95036.69
2023-02-23T12:20:32.634Z,95046.22
2023-02-23T12:23:13.189Z,95040.75
2023-02-23T12:25:55.416Z,95042.31
2023-02-23T12:28:39.387Z,95036.00
2023-02-23T12:31:17.885Z,95040.50
2023-02-23T12:33:48.921Z,95040.75
2023-02-23T12:36:44.903Z,95038.03
2023-02-23T12:39:22.232Z,95036.59
2023-02-23T12:42:07.249Z,95039.78
2023-02-23T12:44:53.874Z,95035.66
2023-02-23T12:47:34.452Z,95031.78
2023-02-23T12:50:10.221Z,95040.06
2023-02-23T12:52:43.617Z,95026.41
2023-02-23T12:55:13.235Z,95026.78
2023-02-23T12:57:47.932Z,95025.19
2023-02-23T13:00:50.420Z,95020.59
2023-02-23T13:03:47.253Z,95015.94
2023-02-23T13:06:20.123Z,95018.31
2023-02-23T13:09:01.782Z,95010.63
2023-02-23T13:11:49.834Z,95018.59
2023-02-23T13:14:29.116Z,95008.53
2023-02-23T13:17:24.234Z,95015.59
2023-02-23T13:19:56.388Z,95007.91
2023-02-23T13:22:34.936Z,95006.75
2023-02-23T13:25:05.297Z,95011.88
2023-02-23T13:27:40.693Z,95011.53
2023-02-23T13:30:11.750Z,95017.41
2023-02-23T13:32:38.991Z,95018.94
2023-02-23T13:35:07.876Z,95007.91
2023-02-23T13:37:55.976Z,95007.75
2023-02-23T13:40:43.982Z,95009.16
2023-02-23T13:43:30.405Z,95008.38
2023-02-23T13:46:12.167Z,95002.00
2023-02-23T13:49:00.529Z,94998.50
2023-02-23T13:51:40.336Z,95003.97
2023-02-23T13:54:23.557Z,94999.72
2023-02-23T13:56:55.282Z,95013.47
2023-02-23T13:59:34.981Z,94998.94
2023-02-23T14:02:20.595Z,95001.22
2023-02-23T14:04:47.298Z,95000.75
2023-02-23T14:07:31.151Z,94998.38
2023-02-23T14:10:06.090Z,94999.13
2023-02-23T14:12:41.235Z,94998.22
2023-02-23T14:15:26.122Z,94996.19
2023-02-23T14:18:01.979Z,95001.22
2023-02-23T14:20:53.499Z,94992.56
2023-02-23T14:23:20.073Z,94999.19
2023-02-23T14:25:52.049Z,95002.97
2023-02-23T14:28:33.514Z,95005.84
2023-02-23T14:31:07.111Z,95008.84
2023-02-23T14:33:43.244Z,95002.03
2023-02-23T14:36:22.032Z,95006.63
2023-02-23T14:38:57.764Z,95003.09
2023-02-23T14:41:28.687Z,95004.25
2023-02-23T14:44:27.233Z,94996.75
2023-02-23T14:47:01.032Z,94994.81
2023-02-23T14:49:31.286Z,94999.03
2023-02-23T14:52:05.033Z,94995.84
2023-02-23T14:54:32.708Z,94998.16
2023-02-23T14:57:02.091Z,94998.84
2023-02-23T14:59:42.367Z,95003.41
2023-02-23T15:02:18.027Z,94992.84
2023-02-23T15:04:45.854Z,95000.22
2023-02-23T15:07:31.195Z,95000.13
2023-02-23T15:09:59.779Z,95002.97
2023-02-23T15:12:29.658Z,95001.38
2023-02-23T15:15:00.030Z,95000.13
2023-02-23T15:17:29.864Z,94999.31
2023-02-23T15:20:14.684Z,94999.31
2023-02-23T15:22:43.438Z,94993.88
2023-02-23T15:25:18.172Z,94994.25
2023-02-23T15:27:46.236Z,94994.56
2023-02-23T15:30:24.971Z,94994.09
2023-02-23T15:33:09.774Z,94986.59
2023-02-23T15:35:44.154Z,94991.28
2023-02-23T15:38:40.376Z,94989.34
2023-02-23T15:41:07.864Z,94990.50
2023-02-23T15:43:34.887Z,94989.34
2023-02-23T15:46:05.661Z,94985.03
2023-02-23T15:48:43.512Z,94983.44
2023-02-23T15:51:29.243Z,94992.31
2023-02-23T15:54:37.410Z,94989.16
2023-02-23T15:57:17.207Z,94993.00
2023-02-23T15:59:46.742Z,94992.56
2023-02-23T16:02:18.962Z,94994.84
2023-02-23T16:04:47.801Z,94989.41
2023-02-23T16:07:21.674Z,94983.47
2023-02-23T16:10:24.414Z,94983.72
2023-02-23T16:12:53.231Z,94986.03
2023-02-23T16:15:39.486Z,94986.72
2023-02-23T16:18:12.688Z,94982.72
2023-02-23T16:20:42.508Z,94979.56
2023-02-23T16:23:36.317Z,94989.22
2023-02-23T16:26:11.713Z,94991.84
2023-02-23T16:28:43.527Z,94987.88
2023-02-23T16:31:25.687Z,94983.91
2023-02-23T16:33:57.391Z,94990.50
2023-02-23T16:36:33.445Z,94986.16
2023-02-23T16:39:02.297Z,94986.06
2023-02-23T16:41:33.922Z,94984.38
2023-02-23T16:44:07.697Z,94993.72
2023-02-23T16:46:54.188Z,94990.41
2023-02-23T16:49:20.791Z,94988.81
2023-02-23T16:51:47.394Z,94990.31
2023-02-23T16:54:13.953Z,94987.03
2023-02-23T16:56:40.779Z,94988.84
2023-02-23T16:59:08.001Z,94995.34
2023-02-23T17:01:34.542Z,94996.00
2023-02-23T17:04:01.402Z,94999.75
2023-02-23T17:06:28.116Z,94994.53
2023-02-23T17:08:58.504Z,95001.00
2023-02-23T17:11:26.045Z,94998.88
2023-02-23T17:13:52.631Z,94997.50
2023-02-23T17:16:19.832Z,95001.25
2023-02-23T17:18:46.608Z,95008.16
2023-02-23T17:21:14.113Z,95011.53
2023-02-23T17:23:42.109Z,95003.91
2023-02-23T17:26:11.180Z,95001.41
2023-02-23T17:28:39.144Z,95013.66
2023-02-23T17:31:07.046Z,95009.91
2023-02-23T17:33:34.152Z,95007.75
2023-02-23T17:36:01.919Z,95011.03
2023-02-23T17:38:28.416Z,95010.31
2023-02-23T17:40:54.895Z,95021.75
2023-02-23T17:43:23.181Z,95011.28
2023-02-23T17:45:52.332Z,95021.09
2023-02-23T17:48:18.940Z,95013.03
2023-02-23T17:50:45.493Z,95015.81
2023-02-23T17:53:12.185Z,95008.53
2023-02-23T17:55:38.720Z,95012.13
2023-02-23T17:58:05.226Z,95013.00
2023-02-23T18:00:31.833Z,95007.59
2023-02-23T18:02:58.649Z,95012.34
2023-02-23T18:05:25.109Z,95016.69
2023-02-23T18:07:51.569Z,95009.38
2023-02-23T18:10:18.345Z,95011.81
2023-02-23T18:12:44.949Z,95016.16
2023-02-23T18:15:11.598Z,95024.38
2023-02-23T18:17:38.107Z,95020.56
2023-02-23T18:20:06.179Z,95021.09
2023-02-23T18:22:33.140Z,95027.31
2023-02-23T18:25:00.188Z,95022.41
2023-02-23T18:27:26.854Z,95019.09
2023-02-23T18:29:53.525Z,95028.41
2023-02-23T18:32:20.347Z,95019.63
2023-02-23T18:34:46.949Z,95023.16
2023-02-23T18:37:13.704Z,95025.56
2023-02-23T18:39:40.223Z,95018.25
2023-02-23T18:42:06.836Z,95024.50
2023-02-23T18:44:35.173Z,95028.50
2023-02-23T18:47:01.935Z,95025.50
2023-02-23T18:49:28.528Z,95020.53
2023-02-23T18:51:55.290Z,95023.75
2023-02-23T18:54:21.896Z,95023.13
2023-02-23T18:56:48.815Z,95022.47
2023-02-23T18:59:16.037Z,95022.97
2023-02-23T19:01:43.364Z,95026.13
2023-02-23T19:04:11.176Z,95020.38
2023-02-23T19:06:37.836Z,95018.94
2023-02-23T19:09:05.072Z,95023.44
2023-02-23T19:11:33.455Z,95022.31
2023-02-23T19:14:06.015Z,95024.34
2023-02-23T19:16:34.327Z,95026.13
2023-02-23T19:19:02.295Z,95023.84
2023-02-23T19:21:28.930Z,95019.72
2023-02-23T19:23:56.229Z,95024.19
2023-02-23T19:26:22.711Z,95018.09
2023-02-23T19:28:49.582Z,95020.66
2023-02-23T19:31:20.051Z,95019.50
2023-02-23T19:33:48.847Z,95016.97
2023-02-23T19:36:19.014Z,95009.00
2023-02-23T19:38:45.858Z,95023.78
2023-02-23T19:41:21.711Z,95020.91
2023-02-23T19:43:48.389Z,95020.25
2023-02-23T19:46:17.398Z,95026.59
2023-02-23T19:48:48.128Z,95018.63
2023-02-23T19:51:14.722Z,95019.56
2023-02-23T19:53:41.269Z,95017.47
2023-02-23T19:56:14.509Z,95016.50
2023-02-23T19:58:41.169Z,95025.56
2023-02-23T20:01:09.900Z,95029.19
2023-02-23T20:03:38.396Z,95032.00
2023-02-23T20:06:09.129Z,95025.66
2023-02-23T20:08:35.616Z,95025.78
2023-02-23T20:11:05.577Z,95032.91
2023-02-23T20:13:32.307Z,95028.44
2023-02-23T20:16:14.870Z,95029.66
2023-02-23T20:18:42.436Z,95034.91
2023-02-23T20:21:09.481Z,95032.31
2023-02-23T20:23:36.295Z,95030.25
2023-02-23T20:26:15.942Z,95026.53
2023-02-23T20:28:42.699Z,95025.88
2023-02-23T20:31:18.766Z,95033.00
2023-02-23T20:33:45.499Z,95040.13
2023-02-23T20:36:12.033Z,95039.91
2023-02-23T20:38:39.079Z,95034.31
2023-02-23T20:41:06.300Z,95033.63
2023-02-23T20:43:32.774Z,95028.88
2023-02-23T20:45:59.459Z,95031.38
2023-02-23T20:48:27.718Z,95030.41
2023-02-23T20:50:54.610Z,95036.31
2023-02-23T20:53:23.724Z,95041.13
2023-02-23T20:55:51.418Z,95032.53
2023-02-23T20:58:18.234Z,95028.34
2023-02-23T21:00:45.197Z,95034.03
2023-02-23T21:03:11.731Z,95031.16
2023-02-23T21:05:39.343Z,95028.28
2023-02-23T21:08:08.742Z,95028.06
2023-02-23T21:10:38.867Z,95024.09
2023-02-23T21:13:07.159Z,95025.50
2023-02-23T21:15:33.682Z,95024.19
2023-02-23T21:18:00.336Z,95020.22
2023-02-23T21:20:27.299Z,95022.44
2023-02-23T21:22:54.497Z,95010.31
2023-02-23T21:25:23.777Z,95011.72
2023-02-23T21:27:50.620Z,95012.03
2023-02-23T21:30:19.243Z,95011.53
2023-02-23T21:32:46.775Z,95010.75
2023-02-23T21:35:13.620Z,95014.53
2023-02-23T21:37:41.483Z,95014.53
2023-02-23T21:40:10.345Z,95007.16
2023-02-23T21:42:43.786Z,95004.34
2023-02-23T21:45:11.543Z,95016.44
2023-02-23T21:47:39.977Z,95011.34
2023-02-23T21:50:07.197Z,95010.75
2023-02-23T21:52:33.759Z,95006.94
2023-02-23T21:55:03.876Z,95005.53
2023-02-23T21:57:32.561Z,95009.53
2023-02-23T21:59:59.101Z,95001.94
2023-02-23T22:02:25.904Z,95011.28
2023-02-23T22:04:52.491Z,95002.09
2023-02-23T22:07:19.466Z,95006.91
2023-02-23T22:09:46.125Z,95001.19
2023-02-23T22:12:12.923Z,95001.69
2023-02-23T22:14:39.768Z,94987.88
2023-02-23T22:17:06.398Z,94990.28
2023-02-23T22:19:33.159Z,94989.97
2023-02-23T22:21:59.790Z,94991.59
2023-02-23T22:24:26.278Z,94985.88
2023-02-23T22:26:52.930Z,94984.28
2023-02-23T22:29:20.081Z,94982.06
2023-02-23T22:31:46.829Z,94985.88
2023-02-23T22:34:14.536Z,94982.06
2023-02-23T22:36:41.242Z,94982.06
2023-02-23T22:39:07.962Z,94983.66
2023-02-23T22:41:34.493Z,94984.44
2023-02-23T22:44:01.003Z,94977.97
2023-02-23T22:46:27.684Z,94959.06
2023-02-23T22:48:54.302Z,94972.25
2023-02-23T22:51:21.311Z,94968.47
2023-02-23T22:53:48.102Z,94973.34
2023-02-23T22:56:14.565Z,94966.06
2023-02-23T22:58:41.101Z,94964.78
2023-02-23T23:01:11.450Z,94967.78
2023-02-23T23:03:44.011Z,94963.81
2023-02-23T23:06:11.277Z,94966.50
2023-02-23T23:08:43.315Z,94967.13
2023-02-23T23:11:12.935Z,94964.72
2023-02-23T23:13:42.152Z,94965.31
2023-02-23T23:16:10.165Z,94965.63
2023-02-23T23:18:36.702Z,94958.94
2023-02-23T23:21:03.499Z,94960.34
2023-02-23T23:23:30.100Z,94963.34
2023-02-23T23:25:56.603Z,94955.56
2023-02-23T23:28:23.185Z,94946.97
2023-02-23T23:30:50.422Z,94939.16
2023-02-23T23:33:16.968Z,94942.16
2023-02-23T23:35:43.630Z,94940.59
2023-02-23T23:38:10.197Z,94938.19
2023-02-23T23:40:37.047Z,94934.97
2023-02-23T23:43:03.606Z,94931.81
2023-02-23T23:45:30.110Z,94927.50
2023-02-23T23:47:56.708Z,94934.81
2023-02-23T23:50:23.266Z,94934.31
2023-02-23T23:52:49.909Z,94928.13
2023-02-23T23:55:16.372Z,94935.41
2023-02-23T23:57:43.364Z,94925.44
